sensor_id;sensor_type;location;lat;lon;timestamp;P1;durP1;ratioP1;P2;durP2;ratioP2
6374;SDS011;35400;45.472;-122.822;2022-12-20T00:00:59;13.33;;;4.57;;
6374;SDS011;35400;45.472;-122.822;2022-12-20T00:03:26;4.87;;;3.63;;
6374;SDS011;35400;45.472;-122.822;2022-12-20T00:05:53;7.43;;;4.40;;
6374;SDS011;35400;45.472;-122.822;2022-12-20T00:08:20;7.47;;;3.80;;
6374;SDS011;35400;45.472;-122.822;2022-12-20T00:10:47;8.67;;;4.27;;
6374;SDS011;35400;45.472;-122.822;2022-12-20T00:13:14;7.57;;;3.97;;
6374;SDS011;35400;45.472;-122.822;2022-12-20T00:15:40;9.57;;;5.13;;
6374;SDS011;35400;45.472;-122.822;2022-12-20T00:18:07;7.50;;;4.50;;
6374;SDS011;35400;45.472;-122.822;2022-12-20T00:20:34;8.03;;;3.73;;
6374;SDS011;35400;45.472;-122.822;2022-12-20T00:23:01;10.00;;;3.63;;
6374;SDS011;35400;45.472;-122.822;2022-12-20T00:25:28;6.37;;;3.40;;
6374;SDS011;35400;45.472;-122.822;2022-12-20T00:27:55;12.37;;;3.93;;
6374;SDS011;35400;45.472;-122.822;2022-12-20T00:30:22;5.87;;;3.47;;
6374;SDS011;35400;45.472;-122.822;2022-12-20T00:32:49;8.87;;;3.10;;
6374;SDS011;35400;45.472;-122.822;2022-12-20T00:35:16;8.73;;;3.03;;
6374;SDS011;35400;45.472;-122.822;2022-12-20T00:37:43;7.67;;;3.60;;
6374;SDS011;35400;45.472;-122.822;2022-12-20T00:40:10;9.40;;;5.17;;
6374;SDS011;35400;45.472;-122.822;2022-12-20T00:42:37;9.37;;;5.83;;
6374;SDS011;35400;45.472;-122.822;2022-12-20T00:45:03;11.17;;;6.77;;
6374;SDS011;35400;45.472;-122.822;2022-12-20T00:47:30;8.83;;;5.43;;
6374;SDS011;35400;45.472;-122.822;2022-12-20T00:49:58;8.13;;;5.17;;
6374;SDS011;35400;45.472;-122.822;2022-12-20T00:52:25;7.87;;;4.97;;
6374;SDS011;35400;45.472;-122.822;2022-12-20T00:54:51;9.87;;;5.13;;
6374;SDS011;35400;45.472;-122.822;2022-12-20T00:57:18;8.80;;;5.37;;
6374;SDS011;35400;45.472;-122.822;2022-12-20T00:59:45;8.67;;;4.73;;
6374;SDS011;35400;45.472;-122.822;2022-12-20T01:02:12;9.60;;;4.10;;
6374;SDS011;35400;45.472;-122.822;2022-12-20T01:04:39;11.40;;;5.70;;
6374;SDS011;35400;45.472;-122.822;2022-12-20T01:07:07;11.67;;;6.80;;
6374;SDS011;35400;45.472;-122.822;2022-12-20T01:09:35;13.43;;;7.50;;
6374;SDS011;35400;45.472;-122.822;2022-12-20T01:12:03;9.23;;;6.53;;
6374;SDS011;35400;45.472;-122.822;2022-12-20T01:14:29;13.17;;;6.17;;
6374;SDS011;35400;45.472;-122.822;2022-12-20T01:16:57;9.60;;;6.13;;
6374;SDS011;35400;45.472;-122.822;2022-12-20T01:19:24;11.03;;;5.20;;
6374;SDS011;35400;45.472;-122.822;2022-12-20T01:21:51;8.27;;;4.97;;
6374;SDS011;35400;45.472;-122.822;2022-12-20T01:24:18;9.03;;;4.80;;
6374;SDS011;35400;45.472;-122.822;2022-12-20T01:26:45;9.20;;;5.20;;
6374;SDS011;35400;45.472;-122.822;2022-12-20T01:29:13;8.37;;;4.37;;
6374;SDS011;35400;45.472;-122.822;2022-12-20T01:31:41;10.20;;;5.10;;
6374;SDS011;35400;45.472;-122.822;2022-12-20T01:34:08;9.73;;;6.20;;
6374;SDS011;35400;45.472;-122.822;2022-12-20T01:36:35;8.60;;;4.53;;
6374;SDS011;35400;45.472;-122.822;2022-12-20T01:39:05;11.10;;;4.67;;
6374;SDS011;35400;45.472;-122.822;2022-12-20T01:41:36;7.30;;;4.33;;
6374;SDS011;35400;45.472;-122.822;2022-12-20T01:44:05;9.33;;;4.57;;
6374;SDS011;35400;45.472;-122.822;2022-12-20T01:46:53;20.73;;;15.97;;
6374;SDS011;35400;45.472;-122.822;2022-12-20T01:49:21;12.83;;;6.77;;
6374;SDS011;35400;45.472;-122.822;2022-12-20T01:52:03;7.03;;;4.80;;
6374;SDS011;35400;45.472;-122.822;2022-12-20T01:55:09;7.67;;;3.97;;
6374;SDS011;35400;45.472;-122.822;2022-12-20T01:58:05;8.13;;;3.63;;
6374;SDS011;35400;45.472;-122.822;2022-12-20T02:00:37;6.60;;;3.17;;
6374;SDS011;35400;45.472;-122.822;2022-12-20T02:03:05;7.77;;;4.47;;
6374;SDS011;35400;45.472;-122.822;2022-12-20T02:05:35;6.43;;;4.27;;
6374;SDS011;35400;45.472;-122.822;2022-12-20T02:08:04;8.87;;;4.47;;
6374;SDS011;35400;45.472;-122.822;2022-12-20T02:16:18;4.40;;;2.60;;
6374;SDS011;35400;45.472;-122.822;2022-12-20T02:21:38;6.20;;;2.90;;
6374;SDS011;35400;45.472;-122.822;2022-12-20T02:27:31;3.40;;;2.47;;
6374;SDS011;35400;45.472;-122.822;2022-12-20T02:30:25;4.37;;;2.20;;
6374;SDS011;35400;45.472;-122.822;2022-12-20T02:33:00;6.83;;;2.50;;
6374;SDS011;35400;45.472;-122.822;2022-12-20T02:35:31;7.57;;;2.83;;
6374;SDS011;35400;45.472;-122.822;2022-12-20T02:38:00;7.77;;;2.77;;
6374;SDS011;35400;45.472;-122.822;2022-12-20T02:40:31;5.93;;;2.93;;
6374;SDS011;35400;45.472;-122.822;2022-12-20T02:43:05;9.00;;;3.27;;
6374;SDS011;35400;45.472;-122.822;2022-12-20T02:46:13;22.60;;;13.27;;
6374;SDS011;35400;45.472;-122.822;2022-12-20T02:48:44;19.43;;;9.00;;
6374;SDS011;35400;45.472;-122.822;2022-12-20T02:51:13;12.10;;;7.77;;
6374;SDS011;35400;45.472;-122.822;2022-12-20T02:53:42;16.87;;;9.57;;
6374;SDS011;35400;45.472;-122.822;2022-12-20T02:58:52;13.00;;;5.30;;
6374;SDS011;35400;45.472;-122.822;2022-12-20T03:01:26;8.33;;;4.53;;
6374;SDS011;35400;45.472;-122.822;2022-12-20T03:03:59;6.97;;;5.40;;
6374;SDS011;35400;45.472;-122.822;2022-12-20T03:06:28;13.17;;;6.97;;
6374;SDS011;35400;45.472;-122.822;2022-12-20T03:08:56;9.03;;;5.40;;
6374;SDS011;35400;45.472;-122.822;2022-12-20T03:11:26;9.33;;;5.63;;
6374;SDS011;35400;45.472;-122.822;2022-12-20T03:13:53;8.33;;;5.70;;
6374;SDS011;35400;45.472;-122.822;2022-12-20T03:16:20;9.70;;;5.67;;
6374;SDS011;35400;45.472;-122.822;2022-12-20T03:18:47;6.63;;;4.57;;
6374;SDS011;35400;45.472;-122.822;2022-12-20T03:21:14;7.10;;;4.70;;
6374;SDS011;35400;45.472;-122.822;2022-12-20T03:23:41;9.60;;;4.50;;
6374;SDS011;35400;45.472;-122.822;2022-12-20T03:26:08;8.67;;;3.80;;
6374;SDS011;35400;45.472;-122.822;2022-12-20T03:28:42;9.20;;;4.60;;
6374;SDS011;35400;45.472;-122.822;2022-12-20T03:31:13;5.77;;;3.73;;
6374;SDS011;35400;45.472;-122.822;2022-12-20T03:33:48;5.83;;;4.17;;
6374;SDS011;35400;45.472;-122.822;2022-12-20T03:36:16;10.17;;;5.20;;
6374;SDS011;35400;45.472;-122.822;2022-12-20T03:38:50;11.17;;;5.80;;
6374;SDS011;35400;45.472;-122.822;2022-12-20T03:41:18;8.70;;;4.77;;
6374;SDS011;35400;45.472;-122.822;2022-12-20T03:43:47;8.87;;;5.73;;
6374;SDS011;35400;45.472;-122.822;2022-12-20T03:46:15;27.83;;;14.77;;
6374;SDS011;35400;45.472;-122.822;2022-12-20T03:48:42;19.67;;;9.40;;
6374;SDS011;35400;45.472;-122.822;2022-12-20T03:51:10;16.93;;;9.93;;
6374;SDS011;35400;45.472;-122.822;2022-12-20T03:53:38;13.07;;;8.53;;
6374;SDS011;35400;45.472;-122.822;2022-12-20T03:56:05;9.57;;;6.47;;
6374;SDS011;35400;45.472;-122.822;2022-12-20T03:58:32;13.27;;;7.37;;
6374;SDS011;35400;45.472;-122.822;2022-12-20T04:00:59;14.77;;;6.67;;
6374;SDS011;35400;45.472;-122.822;2022-12-20T04:03:38;11.77;;;7.13;;
6374;SDS011;35400;45.472;-122.822;2022-12-20T04:06:07;15.83;;;8.40;;
6374;SDS011;35400;45.472;-122.822;2022-12-20T04:08:34;12.17;;;7.47;;
6374;SDS011;35400;45.472;-122.822;2022-12-20T04:11:02;12.63;;;8.27;;
6374;SDS011;35400;45.472;-122.822;2022-12-20T04:13:52;11.97;;;8.53;;
6374;SDS011;35400;45.472;-122.822;2022-12-20T04:16:21;14.03;;;8.53;;
6374;SDS011;35400;45.472;-122.822;2022-12-20T04:18:52;14.10;;;9.57;;
6374;SDS011;35400;45.472;-122.822;2022-12-20T04:21:23;13.07;;;8.67;;
6374;SDS011;35400;45.472;-122.822;2022-12-20T04:23:56;15.97;;;9.90;;
6374;SDS011;35400;45.472;-122.822;2022-12-20T04:26:33;15.80;;;11.07;;
6374;SDS011;35400;45.472;-122.822;2022-12-20T04:29:01;30.70;;;18.80;;
6374;SDS011;35400;45.472;-122.822;2022-12-20T04:31:28;60.30;;;30.77;;
6374;SDS011;35400;45.472;-122.822;2022-12-20T04:33:55;77.20;;;39.20;;
6374;SDS011;35400;45.472;-122.822;2022-12-20T04:36:23;69.50;;;36.20;;
6374;SDS011;35400;45.472;-122.822;2022-12-20T04:38:51;57.70;;;29.43;;
6374;SDS011;35400;45.472;-122.822;2022-12-20T04:41:18;53.37;;;26.40;;
6374;SDS011;35400;45.472;-122.822;2022-12-20T04:43:54;34.00;;;19.20;;
6374;SDS011;35400;45.472;-122.822;2022-12-20T04:46:26;23.60;;;14.47;;
6374;SDS011;35400;45.472;-122.822;2022-12-20T04:48:56;39.43;;;24.90;;
6374;SDS011;35400;45.472;-122.822;2022-12-20T04:51:23;23.80;;;17.60;;
6374;SDS011;35400;45.472;-122.822;2022-12-20T04:53:49;44.47;;;28.13;;
6374;SDS011;35400;45.472;-122.822;2022-12-20T04:56:39;50.63;;;29.97;;
6374;SDS011;35400;45.472;-122.822;2022-12-20T04:59:13;47.27;;;26.80;;
6374;SDS011;35400;45.472;-122.822;2022-12-20T05:01:42;31.33;;;22.57;;
6374;SDS011;35400;45.472;-122.822;2022-12-20T05:04:13;27.70;;;17.37;;
6374;SDS011;35400;45.472;-122.822;2022-12-20T05:06:41;24.07;;;16.83;;
6374;SDS011;35400;45.472;-122.822;2022-12-20T05:09:08;24.73;;;15.87;;
6374;SDS011;35400;45.472;-122.822;2022-12-20T05:11:37;35.83;;;22.47;;
6374;SDS011;35400;45.472;-122.822;2022-12-20T05:14:06;56.83;;;35.30;;
6374;SDS011;35400;45.472;-122.822;2022-12-20T05:16:34;57.53;;;34.10;;
6374;SDS011;35400;45.472;-122.822;2022-12-20T05:19:02;35.53;;;22.90;;
6374;SDS011;35400;45.472;-122.822;2022-12-20T05:21:35;42.83;;;29.00;;
6374;SDS011;35400;45.472;-122.822;2022-12-20T05:24:20;44.93;;;26.93;;
6374;SDS011;35400;45.472;-122.822;2022-12-20T05:27:20;19.73;;;12.10;;
6374;SDS011;35400;45.472;-122.822;2022-12-20T05:29:48;18.50;;;12.47;;
6374;SDS011;35400;45.472;-122.822;2022-12-20T05:32:15;17.37;;;10.67;;
6374;SDS011;35400;45.472;-122.822;2022-12-20T05:34:42;16.73;;;11.53;;
6374;SDS011;35400;45.472;-122.822;2022-12-20T05:37:09;15.83;;;10.43;;
6374;SDS011;35400;45.472;-122.822;2022-12-20T05:39:38;19.83;;;11.07;;
6374;SDS011;35400;45.472;-122.822;2022-12-20T05:42:12;17.87;;;11.40;;
6374;SDS011;35400;45.472;-122.822;2022-12-20T05:44:39;16.03;;;11.03;;
6374;SDS011;35400;45.472;-122.822;2022-12-20T05:47:06;16.07;;;10.50;;
6374;SDS011;35400;45.472;-122.822;2022-12-20T05:49:35;15.17;;;9.70;;
6374;SDS011;35400;45.472;-122.822;2022-12-20T05:52:04;14.23;;;9.67;;
6374;SDS011;35400;45.472;-122.822;2022-12-20T05:54:31;13.37;;;8.80;;
6374;SDS011;35400;45.472;-122.822;2022-12-20T05:57:08;14.33;;;9.70;;
6374;SDS011;35400;45.472;-122.822;2022-12-20T05:59:38;14.20;;;8.47;;
6374;SDS011;35400;45.472;-122.822;2022-12-20T06:02:11;14.97;;;8.57;;
6374;SDS011;35400;45.472;-122.822;2022-12-20T06:04:38;11.33;;;7.90;;
6374;SDS011;35400;45.472;-122.822;2022-12-20T06:07:13;11.77;;;7.90;;
6374;SDS011;35400;45.472;-122.822;2022-12-20T06:09:42;14.97;;;8.20;;
6374;SDS011;35400;45.472;-122.822;2022-12-20T06:12:12;12.13;;;7.63;;
6374;SDS011;35400;45.472;-122.822;2022-12-20T06:14:40;12.90;;;7.63;;
6374;SDS011;35400;45.472;-122.822;2022-12-20T06:17:07;14.10;;;8.47;;
6374;SDS011;35400;45.472;-122.822;2022-12-20T06:19:34;13.73;;;7.40;;
6374;SDS011;35400;45.472;-122.822;2022-12-20T06:22:01;10.17;;;7.10;;
6374;SDS011;35400;45.472;-122.822;2022-12-20T06:24:51;16.00;;;7.77;;
6374;SDS011;35400;45.472;-122.822;2022-12-20T06:27:22;14.80;;;7.77;;
6374;SDS011;35400;45.472;-122.822;2022-12-20T06:29:58;13.97;;;8.03;;
6374;SDS011;35400;45.472;-122.822;2022-12-20T06:32:33;14.07;;;8.27;;
6374;SDS011;35400;45.472;-122.822;2022-12-20T06:35:00;12.47;;;7.80;;
6374;SDS011;35400;45.472;-122.822;2022-12-20T06:37:27;16.27;;;7.67;;
6374;SDS011;35400;45.472;-122.822;2022-12-20T06:39:54;10.40;;;6.97;;
6374;SDS011;35400;45.472;-122.822;2022-12-20T06:42:21;10.97;;;8.23;;
6374;SDS011;35400;45.472;-122.822;2022-12-20T06:44:49;11.13;;;8.10;;
6374;SDS011;35400;45.472;-122.822;2022-12-20T06:47:15;12.67;;;8.53;;
6374;SDS011;35400;45.472;-122.822;2022-12-20T06:49:42;17.80;;;8.17;;
6374;SDS011;35400;45.472;-122.822;2022-12-20T06:52:17;12.00;;;8.43;;
6374;SDS011;35400;45.472;-122.822;2022-12-20T06:54:47;11.63;;;8.00;;
6374;SDS011;35400;45.472;-122.822;2022-12-20T06:57:14;10.93;;;7.80;;
6374;SDS011;35400;45.472;-122.822;2022-12-20T06:59:44;13.83;;;7.80;;
6374;SDS011;35400;45.472;-122.822;2022-12-20T07:02:11;13.50;;;8.03;;
6374;SDS011;35400;45.472;-122.822;2022-12-20T07:04:38;11.07;;;8.27;;
6374;SDS011;35400;45.472;-122.822;2022-12-20T07:07:05;10.83;;;7.60;;
6374;SDS011;35400;45.472;-122.822;2022-12-20T07:09:32;10.80;;;7.70;;
6374;SDS011;35400;45.472;-122.822;2022-12-20T07:12:00;9.50;;;6.43;;
6374;SDS011;35400;45.472;-122.822;2022-12-20T07:14:26;9.17;;;6.53;;
6374;SDS011;35400;45.472;-122.822;2022-12-20T07:16:53;9.83;;;5.93;;
6374;SDS011;35400;45.472;-122.822;2022-12-20T07:19:20;8.67;;;5.20;;
6374;SDS011;35400;45.472;-122.822;2022-12-20T07:21:47;9.90;;;5.33;;
6374;SDS011;35400;45.472;-122.822;2022-12-20T07:24:14;6.83;;;4.50;;
6374;SDS011;35400;45.472;-122.822;2022-12-20T07:26:43;7.63;;;4.70;;
6374;SDS011;35400;45.472;-122.822;2022-12-20T07:29:12;6.23;;;3.90;;
6374;SDS011;35400;45.472;-122.822;2022-12-20T07:31:39;6.57;;;3.97;;
6374;SDS011;35400;45.472;-122.822;2022-12-20T07:34:06;7.40;;;4.40;;
6374;SDS011;35400;45.472;-122.822;2022-12-20T07:36:33;8.20;;;4.50;;
6374;SDS011;35400;45.472;-122.822;2022-12-20T07:39:00;8.40;;;4.23;;
6374;SDS011;35400;45.472;-122.822;2022-12-20T07:41:27;6.40;;;4.30;;
6374;SDS011;35400;45.472;-122.822;2022-12-20T07:43:54;6.07;;;4.50;;
6374;SDS011;35400;45.472;-122.822;2022-12-20T07:46:23;5.20;;;4.13;;
6374;SDS011;35400;45.472;-122.822;2022-12-20T07:48:50;5.90;;;4.30;;
6374;SDS011;35400;45.472;-122.822;2022-12-20T07:51:20;6.03;;;4.47;;
6374;SDS011;35400;45.472;-122.822;2022-12-20T07:54:19;7.67;;;4.23;;
6374;SDS011;35400;45.472;-122.822;2022-12-20T07:56:50;9.40;;;4.00;;
6374;SDS011;35400;45.472;-122.822;2022-12-20T07:59:37;6.80;;;4.23;;
6374;SDS011;35400;45.472;-122.822;2022-12-20T08:02:17;6.23;;;4.53;;
6374;SDS011;35400;45.472;-122.822;2022-12-20T08:04:47;6.57;;;4.40;;
6374;SDS011;35400;45.472;-122.822;2022-12-20T08:07:15;5.60;;;3.57;;
6374;SDS011;35400;45.472;-122.822;2022-12-20T08:09:42;4.63;;;3.50;;
6374;SDS011;35400;45.472;-122.822;2022-12-20T08:12:10;6.70;;;3.70;;
6374;SDS011;35400;45.472;-122.822;2022-12-20T08:14:40;3.40;;;2.53;;
6374;SDS011;35400;45.472;-122.822;2022-12-20T08:17:08;7.57;;;3.43;;
6374;SDS011;35400;45.472;-122.822;2022-12-20T08:19:36;7.43;;;3.77;;
6374;SDS011;35400;45.472;-122.822;2022-12-20T08:22:03;3.20;;;2.60;;
6374;SDS011;35400;45.472;-122.822;2022-12-20T08:24:31;4.43;;;2.73;;
6374;SDS011;35400;45.472;-122.822;2022-12-20T08:27:01;4.80;;;3.10;;
6374;SDS011;35400;45.472;-122.822;2022-12-20T08:29:28;3.40;;;2.50;;
6374;SDS011;35400;45.472;-122.822;2022-12-20T08:31:55;4.73;;;3.30;;
6374;SDS011;35400;45.472;-122.822;2022-12-20T08:34:22;4.23;;;2.60;;
6374;SDS011;35400;45.472;-122.822;2022-12-20T08:36:49;2.70;;;2.40;;
6374;SDS011;35400;45.472;-122.822;2022-12-20T08:39:16;2.87;;;2.50;;
6374;SDS011;35400;45.472;-122.822;2022-12-20T08:41:42;3.60;;;2.73;;
6374;SDS011;35400;45.472;-122.822;2022-12-20T08:44:09;8.50;;;3.33;;
6374;SDS011;35400;45.472;-122.822;2022-12-20T08:46:36;5.77;;;3.67;;
6374;SDS011;35400;45.472;-122.822;2022-12-20T08:49:03;4.93;;;3.73;;
6374;SDS011;35400;45.472;-122.822;2022-12-20T08:51:31;4.60;;;3.23;;
6374;SDS011;35400;45.472;-122.822;2022-12-20T08:53:57;5.40;;;3.40;;
6374;SDS011;35400;45.472;-122.822;2022-12-20T08:56:24;3.60;;;2.80;;
6374;SDS011;35400;45.472;-122.822;2022-12-20T08:58:51;3.67;;;2.70;;
6374;SDS011;35400;45.472;-122.822;2022-12-20T09:01:19;5.17;;;3.27;;
6374;SDS011;35400;45.472;-122.822;2022-12-20T09:03:47;5.53;;;3.10;;
6374;SDS011;35400;45.472;-122.822;2022-12-20T09:06:23;6.17;;;3.37;;
6374;SDS011;35400;45.472;-122.822;2022-12-20T09:08:52;4.03;;;3.10;;
6374;SDS011;35400;45.472;-122.822;2022-12-20T09:11:21;4.43;;;3.23;;
6374;SDS011;35400;45.472;-122.822;2022-12-20T09:13:50;4.30;;;3.13;;
6374;SDS011;35400;45.472;-122.822;2022-12-20T09:16:20;4.03;;;2.97;;
6374;SDS011;35400;45.472;-122.822;2022-12-20T09:18:49;4.50;;;2.97;;
6374;SDS011;35400;45.472;-122.822;2022-12-20T09:21:17;4.80;;;3.43;;
6374;SDS011;35400;45.472;-122.822;2022-12-20T09:23:44;4.13;;;3.03;;
6374;SDS011;35400;45.472;-122.822;2022-12-20T09:26:12;3.70;;;3.10;;
6374;SDS011;35400;45.472;-122.822;2022-12-20T09:28:41;4.00;;;3.13;;
6374;SDS011;35400;45.472;-122.822;2022-12-20T09:31:10;3.30;;;2.60;;
6374;SDS011;35400;45.472;-122.822;2022-12-20T09:33:42;5.13;;;3.30;;
6374;SDS011;35400;45.472;-122.822;2022-12-20T09:36:16;6.17;;;3.27;;
6374;SDS011;35400;45.472;-122.822;2022-12-20T09:38:45;5.90;;;3.23;;
6374;SDS011;35400;45.472;-122.822;2022-12-20T09:41:18;4.03;;;3.37;;
6374;SDS011;35400;45.472;-122.822;2022-12-20T09:43:59;5.37;;;3.20;;
6374;SDS011;35400;45.472;-122.822;2022-12-20T09:46:30;5.50;;;3.33;;
6374;SDS011;35400;45.472;-122.822;2022-12-20T09:48:57;5.63;;;3.97;;
6374;SDS011;35400;45.472;-122.822;2022-12-20T09:51:41;5.37;;;3.83;;
6374;SDS011;35400;45.472;-122.822;2022-12-20T09:59:45;4.93;;;4.00;;
6374;SDS011;35400;45.472;-122.822;2022-12-20T10:02:14;4.70;;;3.53;;
6374;SDS011;35400;45.472;-122.822;2022-12-20T10:04:45;7.03;;;3.60;;
6374;SDS011;35400;45.472;-122.822;2022-12-20T10:10:02;3.83;;;3.03;;
6374;SDS011;35400;45.472;-122.822;2022-12-20T10:13:05;4.53;;;3.53;;
6374;SDS011;35400;45.472;-122.822;2022-12-20T10:16:04;6.57;;;4.00;;
6374;SDS011;35400;45.472;-122.822;2022-12-20T10:18:52;6.57;;;3.93;;
6374;SDS011;35400;45.472;-122.822;2022-12-20T10:21:51;6.13;;;3.77;;
6374;SDS011;35400;45.472;-122.822;2022-12-20T10:24:36;7.73;;;4.20;;
6374;SDS011;35400;45.472;-122.822;2022-12-20T10:27:10;7.87;;;4.43;;
6374;SDS011;35400;45.472;-122.822;2022-12-20T10:29:46;6.27;;;4.50;;
6374;SDS011;35400;45.472;-122.822;2022-12-20T10:32:15;4.73;;;3.80;;
6374;SDS011;35400;45.472;-122.822;2022-12-20T10:34:49;6.87;;;3.80;;
6374;SDS011;35400;45.472;-122.822;2022-12-20T10:37:22;5.60;;;3.97;;
6374;SDS011;35400;45.472;-122.822;2022-12-20T10:39:49;8.40;;;4.83;;
6374;SDS011;35400;45.472;-122.822;2022-12-20T10:42:29;5.33;;;4.07;;
6374;SDS011;35400;45.472;-122.822;2022-12-20T10:45:00;6.83;;;4.27;;
6374;SDS011;35400;45.472;-122.822;2022-12-20T10:47:34;4.57;;;3.70;;
6374;SDS011;35400;45.472;-122.822;2022-12-20T10:52:43;6.37;;;4.30;;
6374;SDS011;35400;45.472;-122.822;2022-12-20T11:01:17;6.30;;;4.33;;
6374;SDS011;35400;45.472;-122.822;2022-12-20T11:03:53;6.23;;;4.43;;
6374;SDS011;35400;45.472;-122.822;2022-12-20T11:14:41;6.47;;;5.13;;
6374;SDS011;35400;45.472;-122.822;2022-12-20T11:20:03;6.80;;;4.80;;
6374;SDS011;35400;45.472;-122.822;2022-12-20T11:22:43;7.43;;;5.00;;
6374;SDS011;35400;45.472;-122.822;2022-12-20T11:28:27;6.23;;;4.47;;
6374;SDS011;35400;45.472;-122.822;2022-12-20T11:36:36;8.03;;;5.50;;
6374;SDS011;35400;45.472;-122.822;2022-12-20T11:43:12;8.10;;;5.67;;
6374;SDS011;35400;45.472;-122.822;2022-12-20T11:48:50;12.30;;;6.97;;
6374;SDS011;35400;45.472;-122.822;2022-12-20T11:54:02;11.57;;;7.10;;
6374;SDS011;35400;45.472;-122.822;2022-12-20T11:56:37;11.43;;;6.53;;
6374;SDS011;35400;45.472;-122.822;2022-12-20T12:05:02;13.83;;;7.93;;
6374;SDS011;35400;45.472;-122.822;2022-12-20T12:07:35;13.67;;;8.13;;
6374;SDS011;35400;45.472;-122.822;2022-12-20T12:10:11;12.67;;;8.80;;
6374;SDS011;35400;45.472;-122.822;2022-12-20T12:18:35;13.60;;;9.03;;
6374;SDS011;35400;45.472;-122.822;2022-12-20T12:24:03;16.70;;;9.37;;
6374;SDS011;35400;45.472;-122.822;2022-12-20T12:26:44;15.80;;;9.77;;
6374;SDS011;35400;45.472;-122.822;2022-12-20T12:29:12;14.93;;;9.13;;
6374;SDS011;35400;45.472;-122.822;2022-12-20T12:32:03;14.97;;;8.90;;
6374;SDS011;35400;45.472;-122.822;2022-12-20T12:48:17;17.13;;;9.17;;
6374;SDS011;35400;45.472;-122.822;2022-12-20T12:50:51;16.90;;;9.80;;
6374;SDS011;35400;45.472;-122.822;2022-12-20T12:53:22;17.03;;;10.50;;
6374;SDS011;35400;45.472;-122.822;2022-12-20T12:55:59;18.40;;;10.43;;
6374;SDS011;35400;45.472;-122.822;2022-12-20T12:59:07;16.97;;;10.20;;
6374;SDS011;35400;45.472;-122.822;2022-12-20T13:01:49;16.80;;;9.20;;
6374;SDS011;35400;45.472;-122.822;2022-12-20T13:25:37;17.17;;;10.07;;
6374;SDS011;35400;45.472;-122.822;2022-12-20T13:36:10;19.17;;;10.60;;
6374;SDS011;35400;45.472;-122.822;2022-12-20T13:39:02;14.53;;;8.90;;
6374;SDS011;35400;45.472;-122.822;2022-12-20T13:41:52;15.23;;;9.70;;
6374;SDS011;35400;45.472;-122.822;2022-12-20T13:44:47;14.53;;;9.67;;
6374;SDS011;35400;45.472;-122.822;2022-12-20T13:49:59;16.70;;;10.60;;
6374;SDS011;35400;45.472;-122.822;2022-12-20T13:52:43;15.03;;;9.30;;
6374;SDS011;35400;45.472;-122.822;2022-12-20T13:55:15;16.17;;;9.40;;
6374;SDS011;35400;45.472;-122.822;2022-12-20T13:57:56;14.87;;;9.70;;
6374;SDS011;35400;45.472;-122.822;2022-12-20T14:00:28;15.57;;;9.50;;
6374;SDS011;35400;45.472;-122.822;2022-12-20T14:02:56;19.07;;;9.93;;
6374;SDS011;35400;45.472;-122.822;2022-12-20T14:05:24;15.57;;;9.93;;
6374;SDS011;35400;45.472;-122.822;2022-12-20T14:08:00;13.73;;;9.47;;
6374;SDS011;35400;45.472;-122.822;2022-12-20T14:10:54;16.97;;;9.50;;
6374;SDS011;35400;45.472;-122.822;2022-12-20T14:13:31;15.47;;;9.80;;
6374;SDS011;35400;45.472;-122.822;2022-12-20T14:16:05;15.43;;;9.40;;
6374;SDS011;35400;45.472;-122.822;2022-12-20T14:18:36;17.00;;;10.53;;
6374;SDS011;35400;45.472;-122.822;2022-12-20T14:21:02;18.23;;;10.70;;
6374;SDS011;35400;45.472;-122.822;2022-12-20T14:26:04;18.70;;;9.90;;
6374;SDS011;35400;45.472;-122.822;2022-12-20T14:28:39;17.33;;;10.47;;
6374;SDS011;35400;45.472;-122.822;2022-12-20T14:31:28;20.07;;;10.20;;
6374;SDS011;35400;45.472;-122.822;2022-12-20T14:34:05;17.13;;;10.47;;
6374;SDS011;35400;45.472;-122.822;2022-12-20T14:36:36;16.67;;;10.17;;
6374;SDS011;35400;45.472;-122.822;2022-12-20T14:39:29;12.87;;;8.97;;
6374;SDS011;35400;45.472;-122.822;2022-12-20T14:42:00;15.70;;;9.80;;
6374;SDS011;35400;45.472;-122.822;2022-12-20T14:44:47;16.30;;;9.57;;
6374;SDS011;35400;45.472;-122.822;2022-12-20T14:47:14;18.03;;;10.73;;
6374;SDS011;35400;45.472;-122.822;2022-12-20T14:50:04;16.53;;;9.80;;
6374;SDS011;35400;45.472;-122.822;2022-12-20T14:52:43;16.13;;;10.67;;
6374;SDS011;35400;45.472;-122.822;2022-12-20T14:57:47;17.73;;;9.80;;
6374;SDS011;35400;45.472;-122.822;2022-12-20T15:08:22;13.03;;;8.07;;
6374;SDS011;35400;45.472;-122.822;2022-12-20T15:13:41;11.23;;;7.63;;
6374;SDS011;35400;45.472;-122.822;2022-12-20T15:16:28;8.83;;;6.93;;
6374;SDS011;35400;45.472;-122.822;2022-12-20T15:18:56;10.80;;;7.17;;
6374;SDS011;35400;45.472;-122.822;2022-12-20T15:24:14;10.07;;;6.20;;
6374;SDS011;35400;45.472;-122.822;2022-12-20T15:26:44;9.40;;;7.13;;
6374;SDS011;35400;45.472;-122.822;2022-12-20T15:31:45;8.87;;;6.37;;
6374;SDS011;35400;45.472;-122.822;2022-12-20T15:36:49;11.57;;;6.97;;
6374;SDS011;35400;45.472;-122.822;2022-12-20T15:39:15;9.23;;;6.23;;
6374;SDS011;35400;45.472;-122.822;2022-12-20T15:41:43;9.27;;;5.83;;
6374;SDS011;35400;45.472;-122.822;2022-12-20T15:44:16;8.53;;;5.97;;
6374;SDS011;35400;45.472;-122.822;2022-12-20T15:46:45;8.50;;;5.90;;
6374;SDS011;35400;45.472;-122.822;2022-12-20T15:49:13;9.50;;;5.53;;
6374;SDS011;35400;45.472;-122.822;2022-12-20T15:51:42;8.10;;;5.40;;
6374;SDS011;35400;45.472;-122.822;2022-12-20T15:54:21;9.70;;;5.57;;
6374;SDS011;35400;45.472;-122.822;2022-12-20T15:56:49;7.67;;;4.83;;
6374;SDS011;35400;45.472;-122.822;2022-12-20T15:59:16;7.67;;;5.07;;
6374;SDS011;35400;45.472;-122.822;2022-12-20T16:01:43;9.10;;;5.10;;
6374;SDS011;35400;45.472;-122.822;2022-12-20T16:04:14;7.07;;;4.50;;
6374;SDS011;35400;45.472;-122.822;2022-12-20T16:06:45;6.90;;;4.27;;
6374;SDS011;35400;45.472;-122.822;2022-12-20T16:09:13;8.30;;;4.53;;
6374;SDS011;35400;45.472;-122.822;2022-12-20T16:11:41;5.67;;;3.67;;
6374;SDS011;35400;45.472;-122.822;2022-12-20T16:14:12;5.80;;;3.53;;
6374;SDS011;35400;45.472;-122.822;2022-12-20T16:16:41;4.50;;;3.40;;
6374;SDS011;35400;45.472;-122.822;2022-12-20T16:19:08;5.77;;;3.30;;
6374;SDS011;35400;45.472;-122.822;2022-12-20T16:21:40;4.33;;;3.27;;
6374;SDS011;35400;45.472;-122.822;2022-12-20T16:24:14;4.60;;;3.37;;
6374;SDS011;35400;45.472;-122.822;2022-12-20T16:26:43;3.43;;;2.70;;
6374;SDS011;35400;45.472;-122.822;2022-12-20T16:29:10;4.30;;;2.90;;
6374;SDS011;35400;45.472;-122.822;2022-12-20T16:31:38;7.27;;;2.90;;
6374;SDS011;35400;45.472;-122.822;2022-12-20T16:34:11;3.73;;;2.90;;
6374;SDS011;35400;45.472;-122.822;2022-12-20T16:36:40;4.80;;;2.97;;
6374;SDS011;35400;45.472;-122.822;2022-12-20T16:39:07;6.17;;;2.70;;
6374;SDS011;35400;45.472;-122.822;2022-12-20T16:41:37;5.43;;;3.27;;
6374;SDS011;35400;45.472;-122.822;2022-12-20T16:44:08;3.93;;;2.70;;
6374;SDS011;35400;45.472;-122.822;2022-12-20T16:46:41;3.80;;;3.00;;
6374;SDS011;35400;45.472;-122.822;2022-12-20T16:49:09;3.30;;;2.60;;
6374;SDS011;35400;45.472;-122.822;2022-12-20T16:51:42;4.27;;;2.70;;
6374;SDS011;35400;45.472;-122.822;2022-12-20T16:54:29;7.63;;;2.90;;
6374;SDS011;35400;45.472;-122.822;2022-12-20T16:56:56;3.07;;;2.53;;
6374;SDS011;35400;45.472;-122.822;2022-12-20T16:59:23;3.33;;;2.27;;
6374;SDS011;35400;45.472;-122.822;2022-12-20T17:01:51;4.47;;;2.50;;
6374;SDS011;35400;45.472;-122.822;2022-12-20T17:04:20;3.23;;;2.57;;